Time;durP1;ratioP1;P1;durP2;ratioP2;P2;SDS_P1;SDS_P2;PMS_P1;PMS_P2;Temp;Humidity;BMP_temperature;BMP_pressure;BME280_temperature;BME280_humidity;BME280_pressure;Samples;Min_cycle;Max_cycle;Signal;HPM_P1;HPM_P2
2023/09/03 00:00:01;;;;;;;8.38;7.47;;;13.00;99.90;;;;;;7371967;19;20014;-67
2023/09/03 00:02:27;;;;;;;7.70;6.90;;;12.90;99.90;;;;;;7370981;19;20022;-75
2023/09/03 00:04:54;;;;;;;8.00;7.20;;;12.80;99.90;;;;;;7378563;19;20377;-77
2023/09/03 00:07:20;;;;;;;8.07;7.28;;;12.80;99.90;;;;;;7382786;19;20023;-76
2023/09/03 00:09:55;;;;;;;9.63;8.45;;;12.80;99.90;;;;;;7383204;19;20386;-75
2023/09/03 00:12:22;;;;;;;9.98;8.95;;;12.80;99.90;;;;;;7386176;19;20022;-76
2023/09/03 00:14:48;;;;;;;10.60;9.43;;;12.70;99.90;;;;;;7391845;19;20505;-76
2023/09/03 00:17:14;;;;;;;11.10;10.00;;;12.70;99.90;;;;;;7386815;19;20028;-76
2023/09/03 00:19:42;;;;;;;10.38;9.27;;;12.70;99.90;;;;;;7389776;19;20077;-76
2023/09/03 00:22:08;;;;;;;11.75;8.85;;;12.60;99.90;;;;;;7388652;19;20031;-75
2023/09/03 00:24:34;;;;;;;12.77;10.10;;;12.50;99.90;;;;;;7375242;19;20014;-67
2023/09/03 00:27:01;;;;;;;11.02;9.48;;;12.50;99.90;;;;;;7370400;19;20018;-67
2023/09/03 00:29:27;;;;;;;10.65;7.50;;;12.50;99.90;;;;;;7370999;19;20022;-67
2023/09/03 00:32:14;;;;;;;8.30;7.43;;;12.50;99.90;;;;;;7372177;19;21011;-67
2023/09/03 00:35:00;;;;;;;6.03;5.43;;;12.40;99.90;;;;;;7371296;19;20014;-66
2023/09/03 00:37:26;;;;;;;7.60;5.72;;;12.40;99.90;;;;;;7374929;19;20057;-68
2023/09/03 00:39:53;;;;;;;8.52;6.85;;;12.30;99.90;;;;;;7371262;19;20580;-67
2023/09/03 00:42:19;;;;;;;8.55;7.40;;;12.30;99.90;;;;;;7372900;19;20597;-67
2023/09/03 00:44:46;;;;;;;8.70;7.80;;;12.20;99.90;;;;;;7371101;19;20030;-67
2023/09/03 00:47:12;;;;;;;11.85;7.82;;;12.20;99.90;;;;;;7371743;19;20571;-67
2023/09/03 00:49:42;;;;;;;9.23;7.53;;;12.20;99.90;;;;;;7368965;19;20051;-66
2023/09/03 00:52:09;;;;;;;8.75;7.80;;;12.20;99.90;;;;;;7373443;19;20090;-67
2023/09/03 00:54:58;;;;;;;9.40;8.32;;;12.10;99.90;;;;;;7370489;19;20089;-67
2023/09/03 00:57:25;;;;;;;9.35;8.15;;;12.10;99.90;;;;;;7368040;19;20118;-67
2023/09/03 00:59:53;;;;;;;11.07;10.02;;;12.10;99.90;;;;;;7368998;19;20125;-67
2023/09/03 01:02:21;;;;;;;12.18;10.98;;;12.20;99.90;;;;;;7370065;19;20090;-67
2023/09/03 01:04:47;;;;;;;11.80;10.60;;;12.20;99.90;;;;;;7367482;19;20022;-67
2023/09/03 01:07:15;;;;;;;12.00;10.80;;;12.20;99.90;;;;;;7373055;19;20014;-66
2023/09/03 01:09:42;;;;;;;12.10;10.60;;;12.20;99.90;;;;;;7364378;19;20019;-67
2023/09/03 01:12:15;;;;;;;12.05;10.30;;;12.20;99.90;;;;;;7374401;19;20022;-67
2023/09/03 01:15:01;;;;;;;12.45;11.25;;;12.20;99.90;;;;;;7367241;19;20010;-67
2023/09/03 01:18:03;;;;;;;13.23;11.40;;;12.20;99.90;;;;;;7365413;19;20025;-67
2023/09/03 01:20:49;;;;;;;12.80;11.55;;;12.20;99.90;;;;;;7372748;19;20097;-67
2023/09/03 01:23:27;;;;;;;15.70;11.98;;;12.20;99.90;;;;;;7371199;19;20011;-68
2023/09/03 01:26:40;;;;;;;13.20;11.82;;;12.20;99.90;;;;;;7373563;19;20110;-71
2023/09/03 01:29:08;;;;;;;13.57;11.48;;;12.20;99.90;;;;;;7374559;19;20057;-67
2023/09/03 01:31:37;;;;;;;12.00;10.77;;;12.20;99.90;;;;;;7373136;19;20028;-68
2023/09/03 01:34:05;;;;;;;10.73;9.65;;;12.10;99.90;;;;;;7372711;19;20019;-68
2023/09/03 01:36:33;;;;;;;12.35;11.05;;;12.10;99.90;;;;;;7367372;19;20022;-68
2023/09/03 01:39:04;;;;;;;12.43;9.50;;;12.00;99.90;;;;;;7367408;19;20015;-67
2023/09/03 01:41:50;;;;;;;11.60;10.40;;;12.00;99.90;;;;;;7367542;19;20018;-67
2023/09/03 01:44:17;;;;;;;12.25;10.95;;;12.10;99.90;;;;;;7366108;19;20018;-68
2023/09/03 01:46:51;;;;;;;12.35;11.05;;;12.10;99.90;;;;;;7370261;19;20884;-68
2023/09/03 01:49:34;;;;;;;11.35;10.25;;;12.10;99.90;;;;;;7367387;19;20377;-68
2023/09/03 01:52:18;;;;;;;11.60;10.40;;;12.10;99.90;;;;;;7372914;19;20022;-67
2023/09/03 01:55:08;;;;;;;12.13;10.93;;;12.10;99.90;;;;;;7373253;19;20560;-67
2023/09/03 01:57:47;;;;;;;11.10;9.27;;;12.10;99.90;;;;;;7367339;19;20021;-68
2023/09/03 02:00:18;;;;;;;10.05;8.70;;;12.10;99.90;;;;;;7374154;19;20029;-67
2023/09/03 02:02:51;;;;;;;11.20;9.23;;;12.10;99.90;;;;;;7367812;19;20059;-67
2023/09/03 02:05:18;;;;;;;10.23;9.23;;;12.00;99.90;;;;;;7369003;19;20347;-68
2023/09/03 02:07:44;;;;;;;7.25;6.55;;;12.00;99.90;;;;;;7366417;19;20539;-67
2023/09/03 02:10:10;;;;;;;8.07;7.28;;;12.00;99.90;;;;;;7368510;19;20386;-67
2023/09/03 02:12:37;;;;;;;8.93;7.88;;;11.90;99.90;;;;;;7366620;19;20015;-68
2023/09/03 02:15:03;;;;;;;11.48;9.35;;;11.90;99.90;;;;;;7366550;19;20034;-67
2023/09/03 02:17:31;;;;;;;10.32;9.18;;;11.90;99.90;;;;;;7369974;19;20018;-66
2023/09/03 02:19:57;;;;;;;11.82;10.73;;;11.80;99.90;;;;;;7370367;19;20452;-66
2023/09/03 02:22:24;;;;;;;11.82;10.63;;;11.90;99.90;;;;;;7370770;19;20559;-68
2023/09/03 02:24:51;;;;;;;12.32;10.40;;;11.80;99.90;;;;;;7368523;19;20014;-66
2023/09/03 02:27:17;;;;;;;13.70;11.07;;;11.80;99.90;;;;;;7370355;19;20019;-67
2023/09/03 02:30:04;;;;;;;11.65;10.35;;;11.80;99.90;;;;;;7369555;19;20067;-66
2023/09/03 02:32:30;;;;;;;12.25;10.60;;;11.80;99.90;;;;;;7364814;19;20557;-67
2023/09/03 02:34:57;;;;;;;11.10;9.95;;;11.80;99.90;;;;;;7367992;19;20017;-67
2023/09/03 02:37:23;;;;;;;11.57;9.75;;;11.80;99.90;;;;;;7367813;19;20045;-68
2023/09/03 02:39:50;;;;;;;13.25;11.00;;;11.80;99.90;;;;;;7364431;19;20488;-68
2023/09/03 02:42:36;;;;;;;15.15;10.82;;;11.80;99.90;;;;;;7361856;19;20018;-68
2023/09/03 02:45:04;;;;;;;13.68;11.90;;;11.80;99.90;;;;;;7367044;19;20014;-68
2023/09/03 02:47:30;;;;;;;16.70;13.30;;;11.80;99.90;;;;;;7370015;19;20022;-68
2023/09/03 02:49:56;;;;;;;13.88;12.38;;;11.90;99.90;;;;;;7364293;19;20444;-68
2023/09/03 02:52:23;;;;;;;15.55;13.50;;;11.90;99.90;;;;;;7370652;19;20019;-68
2023/09/03 02:54:49;;;;;;;16.08;14.45;;;11.80;99.90;;;;;;7364652;19;20017;-68
2023/09/03 02:57:15;;;;;;;15.75;13.88;;;11.80;99.90;;;;;;7360633;19;20022;-68
2023/09/03 02:59:45;;;;;;;16.75;14.95;;;11.80;99.90;;;;;;7364644;19;20496;-68
2023/09/03 03:02:12;;;;;;;14.63;13.10;;;11.90;99.90;;;;;;7360165;19;20490;-68
2023/09/03 03:04:38;;;;;;;15.63;13.95;;;11.90;99.90;;;;;;7366251;19;20583;-68
2023/09/03 03:07:04;;;;;;;18.58;15.00;;;11.90;99.90;;;;;;7364044;19;20018;-67
2023/09/03 03:09:51;;;;;;;16.30;14.60;;;11.90;99.90;;;;;;7358056;19;20022;-68
2023/09/03 03:12:18;;;;;;;15.60;13.93;;;11.90;99.90;;;;;;7362254;19;20043;-68
2023/09/03 03:14:46;;;;;;;14.18;12.68;;;11.90;99.90;;;;;;7359867;19;20018;-68
2023/09/03 03:17:12;;;;;;;15.60;14.07;;;11.80;99.90;;;;;;7362855;19;20607;-68
2023/09/03 03:19:38;;;;;;;15.13;13.15;;;11.80;99.90;;;;;;7361951;19;20279;-68
2023/09/03 03:22:05;;;;;;;15.57;13.52;;;11.80;99.90;;;;;;7364096;19;20366;-72
2023/09/03 03:24:32;;;;;;;13.40;12.10;;;11.80;99.90;;;;;;7371994;19;20380;-74
2023/09/03 03:26:58;;;;;;;13.63;11.93;;;11.70;99.90;;;;;;7370700;19;20070;-74
2023/09/03 03:29:46;;;;;;;13.85;11.38;;;11.60;99.90;;;;;;7368562;19;20025;-75
2023/09/03 03:32:13;;;;;;;12.20;9.90;;;11.50;99.90;;;;;;7369695;19;20026;-74
2023/09/03 03:34:41;;;;;;;12.07;10.20;;;11.40;99.90;;;;;;7371191;19;20464;-73
2023/09/03 03:37:09;;;;;;;11.25;10.15;;;11.30;99.90;;;;;;7370342;19;20599;-73
2023/09/03 03:39:35;;;;;;;9.68;8.77;;;11.20;99.90;;;;;;7371319;19;20023;-73
2023/09/03 03:42:02;;;;;;;10.50;9.48;;;11.20;99.90;;;;;;7373579;19;20445;-72
2023/09/03 03:44:32;;;;;;;10.48;9.40;;;11.10;99.90;;;;;;7372804;19;20018;-73
2023/09/03 03:47:01;;;;;;;10.68;9.65;;;11.00;99.90;;;;;;7380071;19;20082;-73
2023/09/03 03:49:48;;;;;;;10.40;9.30;;;11.00;99.90;;;;;;7373908;19;20030;-72
2023/09/03 03:52:34;;;;;;;9.75;8.75;;;11.00;99.90;;;;;;7380876;19;20073;-72
2023/09/03 03:55:00;;;;;;;10.25;8.80;;;11.00;99.90;;;;;;7376376;19;20572;-67
2023/09/03 03:57:26;;;;;;;10.43;9.32;;;11.00;99.90;;;;;;7368711;19;20041;-67
2023/09/03 03:59:53;;;;;;;11.18;9.98;;;11.00;99.90;;;;;;7364883;19;20525;-68
2023/09/03 04:02:19;;;;;;;10.75;9.73;;;11.00;99.90;;;;;;7367897;19;20372;-67
2023/09/03 04:04:45;;;;;;;12.25;11.10;;;11.00;99.90;;;;;;7373872;19;20038;-72
2023/09/03 04:07:11;;;;;;;12.20;10.18;;;11.00;99.90;;;;;;7371977;19;20014;-67
2023/09/03 04:09:39;;;;;;;12.15;10.02;;;11.00;99.90;;;;;;7369507;19;20482;-67
2023/09/03 04:12:07;;;;;;;13.07;10.43;;;11.00;99.90;;;;;;7374728;19;20019;-73
2023/09/03 04:14:33;;;;;;;10.90;9.80;;;11.00;99.90;;;;;;7378461;19;20930;-73
2023/09/03 04:17:00;;;;;;;10.80;9.77;;;11.00;99.90;;;;;;7375019;19;20050;-72
2023/09/03 04:19:27;;;;;;;10.60;9.60;;;11.00;99.90;;;;;;7379117;19;20073;-72
2023/09/03 04:21:54;;;;;;;9.85;8.85;;;11.00;99.90;;;;;;7373731;19;20512;-72
2023/09/03 04:24:20;;;;;;;9.90;8.98;;;11.00;99.90;;;;;;7375094;19;20069;-73
2023/09/03 04:26:48;;;;;;;10.20;9.05;;;11.00;99.90;;;;;;7373854;19;20022;-72
2023/09/03 04:29:14;;;;;;;10.82;9.70;;;11.00;99.90;;;;;;7376039;19;20489;-73
2023/09/03 04:31:40;;;;;;;9.60;8.63;;;11.00;99.90;;;;;;7378819;19;20449;-73
2023/09/03 04:34:07;;;;;;;10.90;9.48;;;11.00;99.90;;;;;;7375768;19;20406;-73
2023/09/03 04:36:35;;;;;;;10.80;9.73;;;11.00;99.90;;;;;;7376386;19;20035;-67
2023/09/03 04:39:08;;;;;;;9.80;8.80;;;11.00;99.90;;;;;;7368762;19;20025;-73
2023/09/03 04:41:56;;;;;;;12.25;10.63;;;11.00;99.90;;;;;;7370108;19;20022;-68
2023/09/03 04:44:22;;;;;;;11.95;10.43;;;11.00;99.90;;;;;;7370027;19;20116;-73
2023/09/03 04:47:10;;;;;;;10.73;9.63;;;11.00;99.90;;;;;;7371877;19;20014;-68
2023/09/03 04:49:37;;;;;;;11.88;9.70;;;10.90;99.90;;;;;;7366930;19;20585;-68
2023/09/03 04:52:03;;;;;;;11.73;9.88;;;10.90;99.90;;;;;;7366884;19;20039;-68
2023/09/03 04:54:31;;;;;;;12.90;11.38;;;11.00;99.90;;;;;;7367679;19;20026;-73
2023/09/03 04:56:57;;;;;;;13.75;11.20;;;11.00;99.90;;;;;;7372056;19;20421;-67
2023/09/03 04:59:23;;;;;;;12.10;10.90;;;11.00;99.90;;;;;;7365332;19;20409;-68
2023/09/03 05:01:50;;;;;;;14.35;11.55;;;11.10;99.90;;;;;;7363599;19;20021;-68
2023/09/03 05:04:16;;;;;;;12.57;11.27;;;11.00;99.90;;;;;;7371035;19;20015;-67
2023/09/03 05:06:42;;;;;;;12.73;11.38;;;11.00;99.90;;;;;;7378368;19;20018;-74
2023/09/03 05:09:10;;;;;;;13.65;11.85;;;11.00;99.90;;;;;;7374925;19;20034;-74
2023/09/03 05:11:39;;;;;;;13.82;12.20;;;11.10;99.90;;;;;;7375511;19;20010;-74
2023/09/03 05:14:06;;;;;;;12.55;11.25;;;11.10;99.90;;;;;;7377938;19;20038;-74
2023/09/03 05:16:33;;;;;;;11.35;10.18;;;11.10;99.90;;;;;;7376230;19;20022;-74
2023/09/03 05:19:04;;;;;;;12.05;10.95;;;11.10;99.90;;;;;;7378209;19;20026;-73
2023/09/03 05:21:51;;;;;;;12.60;9.95;;;11.10;99.90;;;;;;7378217;19;20010;-73
2023/09/03 05:24:17;;;;;;;11.57;10.10;;;11.20;99.90;;;;;;7374922;19;20046;-74
2023/09/03 05:26:44;;;;;;;11.07;9.50;;;11.20;99.90;;;;;;7377256;19;20025;-73
2023/09/03 05:29:13;;;;;;;10.35;9.02;;;11.20;99.90;;;;;;7372811;19;20117;-73
2023/09/03 05:32:02;;;;;;;8.38;7.53;;;11.20;99.90;;;;;;7378781;19;20014;-73
2023/09/03 05:34:50;;;;;;;9.38;7.97;;;11.20;99.90;;;;;;7376622;19;21015;-73
2023/09/03 05:37:18;;;;;;;9.93;8.00;;;11.20;99.90;;;;;;7372450;19;20021;-73
2023/09/03 05:39:44;;;;;;;9.15;8.25;;;11.20;99.90;;;;;;7378637;19;20362;-73
2023/09/03 05:42:11;;;;;;;10.60;8.90;;;11.20;99.90;;;;;;7379049;19;20469;-72
2023/09/03 05:44:39;;;;;;;9.15;8.25;;;11.30;99.90;;;;;;7379686;19;20367;-69
2023/09/03 05:47:05;;;;;;;9.93;8.93;;;11.40;99.90;;;;;;7369153;19;20015;-72
2023/09/03 05:49:31;;;;;;;9.43;8.40;;;11.40;99.90;;;;;;7369362;19;20529;-65
2023/09/03 05:52:01;;;;;;;10.57;9.57;;;11.60;99.90;;;;;;7369780;19;20081;-67
2023/09/03 05:54:27;;;;;;;10.52;9.48;;;11.70;99.90;;;;;;7363575;19;20794;-67
2023/09/03 05:56:53;;;;;;;9.82;8.82;;;11.90;99.90;;;;;;7372829;19;20015;-68
2023/09/03 05:59:21;;;;;;;9.77;8.75;;;12.20;99.90;;;;;;7369245;19;20026;-67
2023/09/03 06:02:07;;;;;;;23.75;21.20;;;12.50;99.90;;;;;;7370747;19;20022;-69
2023/09/03 06:04:53;;;;;;;12.38;11.18;;;12.60;99.90;;;;;;7370905;19;20021;-69
2023/09/03 06:07:21;;;;;;;10.93;9.80;;;12.70;99.90;;;;;;7370956;19;20057;-69
2023/09/03 06:09:47;;;;;;;9.73;8.82;;;12.80;99.90;;;;;;7368143;19;20062;-69
2023/09/03 06:12:14;;;;;;;10.23;9.23;;;12.90;99.90;;;;;;7367033;19;20018;-69
2023/09/03 06:14:40;;;;;;;9.50;8.60;;;13.10;99.90;;;;;;7372018;19;20015;-69
2023/09/03 06:17:06;;;;;;;10.23;9.20;;;13.20;99.90;;;;;;7369461;19;20094;-69
2023/09/03 06:19:33;;;;;;;11.32;10.15;;;13.40;99.90;;;;;;7371098;19;20014;-69
2023/09/03 06:22:02;;;;;;;11.02;9.93;;;13.50;99.90;;;;;;7366567;19;20097;-70
2023/09/03 06:24:28;;;;;;;13.07;11.75;;;13.60;99.90;;;;;;7366614;19;20390;-65
2023/09/03 06:26:55;;;;;;;12.38;11.15;;;13.80;99.90;;;;;;7368697;19;20125;-71
2023/09/03 06:29:22;;;;;;;10.60;9.60;;;13.90;99.90;;;;;;7366208;19;20019;-69
2023/09/03 06:32:09;;;;;;;10.38;9.13;;;13.90;99.90;;;;;;7369017;19;20126;-70
2023/09/03 06:34:35;;;;;;;9.73;8.65;;;13.90;99.90;;;;;;7370033;19;20023;-70
2023/09/03 06:37:01;;;;;;;9.75;8.82;;;14.00;99.90;;;;;;7369714;19;20018;-70
2023/09/03 06:39:28;;;;;;;9.85;8.88;;;14.20;99.90;;;;;;7373315;19;20030;-70
2023/09/03 06:41:59;;;;;;;8.38;7.68;;;14.30;99.90;;;;;;7365730;19;20452;-75
2023/09/03 06:44:26;;;;;;;9.10;8.30;;;14.40;99.90;;;;;;7366430;19;20025;-74
2023/09/03 06:46:52;;;;;;;9.20;8.30;;;14.50;99.90;;;;;;7369299;19;20587;-76
2023/09/03 06:49:38;;;;;;;9.13;8.23;;;14.70;99.90;;;;;;7366850;19;20078;-76
2023/09/03 06:52:25;;;;;;;9.88;8.98;;;14.90;99.90;;;;;;7365047;19;20026;-77
2023/09/03 06:54:52;;;;;;;8.82;7.93;;;15.00;99.90;;;;;;7367507;19;20549;-77
2023/09/03 06:57:20;;;;;;;9.30;8.40;;;15.10;99.90;;;;;;7366925;19;20015;-74
2023/09/03 06:59:46;;;;;;;8.63;7.82;;;15.50;99.90;;;;;;7368709;19;20106;-71
2023/09/03 07:02:12;;;;;;;26.88;24.10;;;15.60;99.90;;;;;;7363994;19;20344;-76
2023/09/03 07:04:38;;;;;;;28.60;25.55;;;15.80;99.90;;;;;;7371058;19;20014;-77
2023/09/03 07:07:05;;;;;;;12.27;11.00;;;16.00;99.90;;;;;;7367031;19;20690;-69
2023/09/03 07:09:32;;;;;;;9.52;8.52;;;16.40;99.90;;;;;;7368509;19;20022;-69
2023/09/03 07:12:00;;;;;;;10.95;9.88;;;16.90;99.90;;;;;;7364951;19;20389;-71
2023/09/03 07:14:26;;;;;;;10.95;9.85;;;17.20;99.90;;;;;;7370068;19;20438;-69
2023/09/03 07:17:13;;;;;;;20.10;18.15;;;17.80;99.90;;;;;;7365936;19;20022;-70
2023/09/03 07:19:39;;;;;;;5.68;5.18;;;18.10;99.90;;;;;;7368159;19;20583;-69
2023/09/03 07:22:05;;;;;;;5.40;4.90;;;18.40;99.90;;;;;;7370732;19;20018;-69
2023/09/03 07:24:32;;;;;;;5.07;4.57;;;18.70;99.90;;;;;;7378941;19;20096;-69
2023/09/03 07:26:58;;;;;;;7.88;6.22;;;18.90;99.90;;;;;;7376538;19;20018;-67
2023/09/03 07:29:25;;;;;;;6.28;4.53;;;19.30;99.90;;;;;;7384128;19;20439;-68
2023/09/03 07:31:52;;;;;;;7.57;5.93;;;19.60;99.90;;;;;;7373692;19;20055;-68
2023/09/03 07:34:18;;;;;;;5.18;4.53;;;20.10;99.90;;;;;;7372452;19;20038;-68
2023/09/03 07:37:04;;;;;;;6.85;4.20;;;20.30;99.90;;;;;;7370120;19;20609;-68
2023/09/03 07:39:30;;;;;;;6.30;4.53;;;20.70;99.90;;;;;;7369101;19;20043;-69
2023/09/03 07:41:57;;;;;;;4.45;4.00;;;21.10;99.90;;;;;;7373362;19;20462;-69
2023/09/03 07:44:23;;;;;;;7.68;5.35;;;21.30;99.90;;;;;;7374933;19;20022;-68
2023/09/03 07:46:50;;;;;;;5.68;4.05;;;21.30;99.90;;;;;;7373179;19;20577;-68
2023/09/03 07:49:18;;;;;;;4.70;4.28;;;21.50;99.90;;;;;;7374947;19;20026;-71
2023/09/03 07:51:46;;;;;;;8.50;5.20;;;21.50;99.90;;;;;;7379057;19;20612;-71
2023/09/03 07:54:15;;;;;;;7.38;5.63;;;22.00;99.90;;;;;;7372766;19;20039;-70
2023/09/03 07:56:42;;;;;;;11.75;9.90;;;22.10;99.90;;;;;;7372316;19;20018;-72
2023/09/03 07:59:09;;;;;;;29.35;26.20;;;22.10;99.90;;;;;;7369452;19;20430;-68
2023/09/03 08:01:36;;;;;;;8.20;5.40;;;22.20;99.90;;;;;;7374472;19;20109;-73
2023/09/03 08:04:03;;;;;;;7.13;4.70;;;22.40;99.90;;;;;;7366024;19;20023;-74
2023/09/03 08:06:29;;;;;;;6.57;3.85;;;22.30;99.90;;;;;;7374415;19;20029;-71
2023/09/03 08:08:56;;;;;;;4.80;3.72;;;22.30;99.90;;;;;;7371128;19;20026;-72
2023/09/03 08:11:22;;;;;;;6.32;3.60;;;22.10;99.90;;;;;;7372198;19;20085;-71
2023/09/03 08:14:00;;;;;;;5.30;3.38;;;22.30;99.90;;;;;;7377142;19;20011;-72
2023/09/03 08:16:27;;;;;;;3.75;2.85;;;22.10;99.90;;;;;;7374008;19;20393;-72
2023/09/03 08:18:54;;;;;;;5.55;2.28;;;22.10;99.90;;;;;;7369815;19;20402;-72
2023/09/03 08:21:20;;;;;;;4.75;2.25;;;22.40;99.90;;;;;;7370941;19;20028;-71
2023/09/03 08:23:46;;;;;;;4.88;2.60;;;22.50;99.90;;;;;;7374937;19;20010;-73
2023/09/03 08:26:12;;;;;;;5.20;2.30;;;22.70;99.90;;;;;;7371011;19;20007;-72
2023/09/03 08:28:39;;;;;;;6.80;2.80;;;23.10;99.90;;;;;;7372787;19;20025;-72
2023/09/03 08:31:06;;;;;;;3.90;2.50;;;23.00;99.90;;;;;;7374864;19;20088;-73
2023/09/03 08:33:33;;;;;;;4.20;2.70;;;22.80;99.90;;;;;;7367535;19;20461;-72
2023/09/03 08:36:02;;;;;;;5.50;2.58;;;22.80;99.90;;;;;;7374825;19;20066;-63
2023/09/03 08:38:30;;;;;;;6.20;3.35;;;23.00;99.90;;;;;;7373502;19;20106;-70
2023/09/03 08:40:56;;;;;;;5.80;3.30;;;23.00;99.90;;;;;;7375382;19;20010;-68
2023/09/03 08:43:25;;;;;;;3.72;2.95;;;23.40;99.90;;;;;;7370874;19;20046;-66
2023/09/03 08:45:56;;;;;;;5.90;3.22;;;23.30;99.90;;;;;;7377961;19;20592;-65
2023/09/03 08:48:22;;;;;;;;;;;23.70;99.90;;;;;;7370621;19;20042;-65
2023/09/03 08:50:49;;;;;;;5.15;3.20;;;23.80;99.90;;;;;;7374812;19;20315;-66
2023/09/03 08:53:36;;;;;;;5.88;3.60;;;24.00;99.90;;;;;;7371974;19;20424;-68
2023/09/03 08:56:03;;;;;;;6.20;3.22;;;24.10;99.90;;;;;;7368661;19;20025;-65
2023/09/03 08:58:32;;;;;;;5.78;3.67;;;24.10;99.90;;;;;;7364610;19;20131;-65
2023/09/03 09:00:58;;;;;;;4.25;3.30;;;23.90;99.90;;;;;;7371717;19;20014;-67
2023/09/03 09:03:28;;;;;;;4.97;3.03;;;23.70;99.90;;;;;;7372480;19;20117;-60
2023/09/03 09:05:56;;;;;;;5.10;3.05;;;23.90;99.90;;;;;;7366334;19;20010;-60
2023/09/03 09:08:23;;;;;;;6.38;2.80;;;24.00;99.90;;;;;;7370109;19;20386;-60
2023/09/03 09:10:51;;;;;;;4.10;2.30;;;24.50;99.90;;;;;;7368176;19;20018;-59
2023/09/03 09:13:24;;;;;;;4.50;2.80;;;24.70;99.90;;;;;;7371546;19;20111;-60
2023/09/03 09:15:51;;;;;;;5.90;3.37;;;24.90;99.90;;;;;;7366623;19;20570;-60
2023/09/03 09:18:17;;;;;;;5.68;3.28;;;25.30;99.90;;;;;;7372420;19;20038;-60
2023/09/03 09:20:44;;;;;;;5.78;3.85;;;25.50;99.90;;;;;;7369640;19;20543;-60
2023/09/03 09:23:10;;;;;;;5.45;3.17;;;25.60;99.90;;;;;;7369799;19;20022;-60
2023/09/03 09:25:37;;;;;;;3.67;2.85;;;25.70;99.90;;;;;;7370269;19;20018;-61
2023/09/03 09:28:25;;;;;;;5.03;3.70;;;26.10;99.90;;;;;;7370163;19;20010;-60
2023/09/03 09:30:58;;;;;;;4.13;3.35;;;26.30;99.90;;;;;;7366939;19;20034;-60
2023/09/03 09:33:26;;;;;;;6.00;3.30;;;26.10;98.00;;;;;;7367031;19;20023;-59
2023/09/03 09:36:12;;;;;;;4.93;3.47;;;25.90;99.30;;;;;;7369698;19;20046;-60
2023/09/03 09:38:39;;;;;;;7.35;3.92;;;25.90;99.60;;;;;;7372100;19;20015;-60
2023/09/03 09:41:28;;;;;;;7.18;4.28;;;26.00;99.40;;;;;;7370150;19;20037;-60
2023/09/03 09:43:54;;;;;;;7.82;4.75;;;25.80;99.10;;;;;;7367142;19;20060;-60
2023/09/03 09:46:28;;;;;;;3.75;2.13;;;26.30;99.40;;;;;;7372916;19;20483;-61
2023/09/03 09:49:00;;;;;;;4.55;2.45;;;26.20;96.30;;;;;;7368750;19;20052;-60
2023/09/03 09:51:28;;;;;;;11.02;7.25;;;25.90;97.50;;;;;;7371944;19;20018;-61
2023/09/03 09:54:15;;;;;;;8.07;6.90;;;26.20;96.80;;;;;;7367841;19;20019;-61
2023/09/03 09:56:42;;;;;;;5.95;3.70;;;25.90;96.80;;;;;;7369020;19;20126;-63
2023/09/03 09:59:11;;;;;;;8.20;6.10;;;26.00;96.40;;;;;;7370732;19;20010;-62
2023/09/03 10:01:47;;;;;;;3.78;2.13;;;26.50;96.50;;;;;;7371690;19;20062;-62
2023/09/03 10:04:13;;;;;;;2.60;1.60;;;26.50;92.70;;;;;;7368986;19;20018;-62
2023/09/03 10:06:40;;;;;;;5.90;2.20;;;26.50;92.50;;;;;;7371420;19;20022;-67
2023/09/03 10:09:08;;;;;;;4.93;2.40;;;26.70;92.60;;;;;;7367721;19;20090;-68
2023/09/03 10:11:34;;;;;;;4.85;3.00;;;26.50;92.60;;;;;;7373175;19;20428;-67
2023/09/03 10:14:00;;;;;;;4.15;2.22;;;26.80;92.50;;;;;;7368643;19;20014;-67
2023/09/03 10:16:27;;;;;;;3.28;1.55;;;26.90;92.00;;;;;;7368267;19;20033;-67
2023/09/03 10:18:58;;;;;;;4.25;2.60;;;27.00;91.60;;;;;;7363764;19;20051;-68
2023/09/03 10:21:50;;;;;;;13.35;11.98;;;27.20;91.60;;;;;;7365295;19;20014;-67
2023/09/03 10:24:19;;;;;;;5.63;4.15;;;27.60;90.20;;;;;;7369801;19;20014;-67
2023/09/03 10:26:50;;;;;;;12.45;11.18;;;28.00;89.50;;;;;;7367296;19;20588;-67
2023/09/03 10:29:19;;;;;;;6.32;3.53;;;28.00;86.70;;;;;;7369382;19;20037;-67
2023/09/03 10:32:06;;;;;;;5.03;1.85;;;28.40;84.60;;;;;;7368735;19;20026;-67
2023/09/03 10:34:39;;;;;;;4.60;2.20;;;28.10;84.30;;;;;;7369777;19;20479;-61
2023/09/03 10:37:10;;;;;;;6.07;3.92;;;28.40;83.00;;;;;;7368992;19;20018;-62
2023/09/03 10:39:40;;;;;;;4.50;2.03;;;28.30;82.20;;;;;;7368149;19;20029;-62
2023/09/03 10:42:16;;;;;;;3.55;2.15;;;28.40;80.60;;;;;;7365090;19;20365;-61
2023/09/03 10:44:43;;;;;;;4.20;2.10;;;28.70;79.30;;;;;;7364589;19;20023;-62
2023/09/03 10:47:30;;;;;;;3.00;1.63;;;28.90;79.40;;;;;;7364179;19;20022;-61
2023/09/03 10:49:56;;;;;;;2.65;1.42;;;29.10;76.80;;;;;;7364728;19;20026;-61
2023/09/03 10:52:35;;;;;;;2.88;2.03;;;29.40;77.00;;;;;;7362857;19;20510;-62
2023/09/03 10:55:20;;;;;;;4.05;1.60;;;29.30;73.90;;;;;;7361229;19;20022;-61
2023/09/03 10:58:08;;;;;;;2.97;1.65;;;29.20;70.00;;;;;;7360577;19;20040;-61
2023/09/03 11:00:34;;;;;;;4.40;3.22;;;29.70;71.00;;;;;;7366316;19;20026;-62
2023/09/03 11:03:23;;;;;;;19.23;17.42;;;29.60;71.90;;;;;;7366835;19;20029;-64
2023/09/03 11:06:18;;;;;;;19.35;17.52;;;30.10;70.10;;;;;;7364170;19;20022;-62
2023/09/03 11:08:46;;;;;;;3.13;1.42;;;30.10;67.20;;;;;;7363728;19;20042;-61
2023/09/03 11:11:22;;;;;;;8.70;6.68;;;29.80;69.00;;;;;;7364528;19;20029;-61
2023/09/03 11:13:49;;;;;;;5.90;4.53;;;30.40;68.50;;;;;;7369235;19;20018;-61
2023/09/03 11:16:16;;;;;;;4.07;1.30;;;30.70;66.30;;;;;;7363545;19;20691;-61
2023/09/03 11:18:49;;;;;;;6.07;3.53;;;30.60;65.70;;;;;;7363585;19;20577;-66
2023/09/03 11:21:19;;;;;;;3.70;1.60;;;30.70;66.50;;;;;;7368320;19;20796;-66
2023/09/03 11:24:08;;;;;;;4.37;1.77;;;30.90;65.60;;;;;;7368893;19;20373;-66
2023/09/03 11:26:37;;;;;;;3.58;1.75;;;30.80;63.70;;;;;;7367994;19;20051;-66
2023/09/03 11:29:03;;;;;;;3.22;1.67;;;29.80;65.00;;;;;;7364804;19;20039;-66
2023/09/03 11:31:48;;;;;;;3.05;1.10;;;29.60;66.40;;;;;;7371826;19;20465;-66
2023/09/03 11:34:22;;;;;;;2.13;1.30;;;29.50;63.40;;;;;;7366376;19;20426;-61
2023/09/03 11:36:50;;;;;;;2.78;1.38;;;29.00;64.30;;;;;;7367650;19;20763;-61
2023/09/03 11:39:17;;;;;;;2.35;1.20;;;28.90;64.60;;;;;;7362684;19;20030;-61
2023/09/03 11:41:47;;;;;;;2.47;1.10;;;28.90;63.90;;;;;;7366536;19;20023;-60
2023/09/03 11:44:20;;;;;;;5.28;3.10;;;29.30;64.50;;;;;;7362688;19;20023;-59
2023/09/03 11:47:02;;;;;;;4.28;1.30;;;30.00;63.60;;;;;;7367726;19;20037;-62
2023/09/03 11:49:48;;;;;;;1.63;0.88;;;30.30;62.40;;;;;;7363331;19;20039;-62
2023/09/03 11:52:16;;;;;;;4.18;1.17;;;30.50;62.10;;;;;;7366817;19;20037;-63
2023/09/03 11:54:42;;;;;;;1.92;0.98;;;30.50;61.70;;;;;;7349555;19;20443;-63
2023/09/03 11:57:12;;;;;;;3.05;1.45;;;31.00;61.40;;;;;;7375016;19;20062;-64
2023/09/03 11:59:38;;;;;;;2.22;0.90;;;30.40;59.30;;;;;;7368730;19;20454;-63
2023/09/03 12:02:06;;;;;;;1.58;1.10;;;31.00;59.90;;;;;;7365108;19;20540;-62
2023/09/03 12:04:32;;;;;;;3.83;2.65;;;30.70;58.60;;;;;;7365660;19;20485;-69
2023/09/03 12:07:12;;;;;;;2.63;1.20;;;30.70;57.10;;;;;;7363986;19;20018;-62
2023/09/03 12:09:41;;;;;;;4.57;1.55;;;30.60;58.50;;;;;;7369586;19;20616;-63
2023/09/03 12:12:08;;;;;;;3.03;1.52;;;30.70;59.00;;;;;;7373170;19;20035;-62
2023/09/03 12:14:55;;;;;;;6.07;4.95;;;30.60;57.80;;;;;;7368500;19;20053;-64
2023/09/03 12:17:25;;;;;;;1.92;0.80;;;30.30;56.90;;;;;;7365690;19;20022;-61
2023/09/03 12:19:53;;;;;;;34.72;31.60;;;31.10;56.70;;;;;;7369386;19;20015;-60
2023/09/03 12:22:19;;;;;;;26.00;23.60;;;31.20;56.40;;;;;;7367915;19;20027;-60
2023/09/03 12:24:49;;;;;;;7.70;6.32;;;31.50;55.90;;;;;;7365133;19;20015;-60
2023/09/03 12:27:16;;;;;;;6.25;5.57;;;31.80;55.70;;;;;;7362329;19;20069;-60
2023/09/03 12:29:42;;;;;;;3.35;2.00;;;32.10;54.10;;;;;;7364690;19;20023;-60
2023/09/03 12:32:14;;;;;;;9.25;8.18;;;31.60;54.40;;;;;;7362369;19;20390;-66
2023/09/03 12:34:43;;;;;;;2.83;1.75;;;31.50;53.80;;;;;;7358386;19;20488;-66
2023/09/03 12:37:10;;;;;;;2.90;1.20;;;31.50;54.00;;;;;;7361406;19;20025;-71
2023/09/03 12:39:40;;;;;;;2.85;1.10;;;31.70;54.60;;;;;;7367159;19;20052;-70
2023/09/03 12:42:08;;;;;;;1.48;0.85;;;32.00;53.40;;;;;;7367018;19;20022;-67
2023/09/03 12:44:35;;;;;;;2.83;1.27;;;32.30;53.40;;;;;;7367146;19;20108;-67
2023/09/03 12:47:03;;;;;;;5.15;4.53;;;32.10;53.20;;;;;;7372839;19;20019;-67
2023/09/03 12:49:30;;;;;;;3.70;1.67;;;32.60;52.40;;;;;;7375071;19;20010;-68
2023/09/03 12:51:57;;;;;;;4.43;1.63;;;32.50;52.70;;;;;;7373461;19;20026;-68
2023/09/03 12:54:24;;;;;;;2.03;1.05;;;32.30;52.60;;;;;;7369549;19;20434;-67
2023/09/03 12:56:51;;;;;;;2.55;1.02;;;32.10;53.50;;;;;;7371226;19;20039;-77